sensor_id;sensor_type;location;lat;lon;timestamp;pressure;altitude;pressure_sealevel;temperature;humidity
71239;BME280;61342;51.442;7.370;2022-11-13T00:00:11;101193.75;;;10.07;67.79
71239;BME280;61342;51.442;7.370;2022-11-13T00:01:21;101190.88;;;10.07;68.19
71239;BME280;61342;51.442;7.370;2022-11-13T00:02:21;101200.78;;;10.06;68.20
71239;BME280;61342;51.442;7.370;2022-11-13T00:03:22;101184.84;;;10.05;68.16
71239;BME280;61342;51.442;7.370;2022-11-13T00:04:22;101199.50;;;10.07;68.21
71239;BME280;61342;51.442;7.370;2022-11-13T00:05:23;101203.66;;;10.06;68.16
71239;BME280;61342;51.442;7.370;2022-11-13T00:06:23;101197.91;;;10.06;68.03
71239;BME280;61342;51.442;7.370;2022-11-13T00:07:23;101198.41;;;10.04;68.16
71239;BME280;61342;51.442;7.370;2022-11-13T00:08:24;101188.72;;;10.02;68.25
71239;BME280;61342;51.442;7.370;2022-11-13T00:09:24;101189.53;;;10.02;68.29
71239;BME280;61342;51.442;7.370;2022-11-13T00:10:25;101192.66;;;10.04;68.28
71239;BME280;61342;51.442;7.370;2022-11-13T00:11:25;101194.47;;;10.02;68.31
71239;BME280;61342;51.442;7.370;2022-11-13T00:12:25;101193.69;;;10.01;68.38
71239;BME280;61342;51.442;7.370;2022-11-13T00:13:27;101197.63;;;10.04;68.35
71239;BME280;61342;51.442;7.370;2022-11-13T00:14:28;101206.75;;;10.02;68.19
71239;BME280;61342;51.442;7.370;2022-11-13T00:15:28;101203.06;;;10.02;68.24
71239;BME280;61342;51.442;7.370;2022-11-13T00:16:29;101201.22;;;9.99;68.08
71239;BME280;61342;51.442;7.370;2022-11-13T00:17:29;101198.66;;;10.01;68.47
71239;BME280;61342;51.442;7.370;2022-11-13T00:18:30;101199.63;;;9.98;68.28
71239;BME280;61342;51.442;7.370;2022-11-13T00:19:31;101197.56;;;9.98;68.60
71239;BME280;61342;51.442;7.370;2022-11-13T00:20:31;101197.56;;;9.98;68.81
71239;BME280;61342;51.442;7.370;2022-11-13T00:21:31;101187.53;;;9.94;68.54
71239;BME280;61342;51.442;7.370;2022-11-13T00:22:32;101191.00;;;9.98;68.68
71239;BME280;61342;51.442;7.370;2022-11-13T00:23:35;101187.53;;;9.94;68.67
71239;BME280;61342;51.442;7.370;2022-11-13T00:24:35;101194.09;;;9.94;68.61
71239;BME280;61342;51.442;7.370;2022-11-13T00:25:36;101187.53;;;9.94;68.56
71239;BME280;61342;51.442;7.370;2022-11-13T00:26:36;101199.03;;;9.94;68.52
71239;BME280;61342;51.442;7.370;2022-11-13T00:27:38;101194.56;;;9.93;68.53
71239;BME280;61342;51.442;7.370;2022-11-13T00:28:39;101183.06;;;9.93;68.59
71239;BME280;61342;51.442;7.370;2022-11-13T00:29:39;101190.13;;;9.92;68.70
71239;BME280;61342;51.442;7.370;2022-11-13T00:30:40;101192.72;;;9.90;68.70
71239;BME280;61342;51.442;7.370;2022-11-13T00:31:40;101181.22;;;9.90;68.63
71239;BME280;61342;51.442;7.370;2022-11-13T00:32:40;101183.81;;;9.88;68.59
71239;BME280;61342;51.442;7.370;2022-11-13T00:33:41;101189.84;;;9.90;68.66
71239;BME280;61342;51.442;7.370;2022-11-13T00:34:41;101177.06;;;9.91;68.85
71239;BME280;61342;51.442;7.370;2022-11-13T00:35:42;101178.84;;;9.88;68.74
71239;BME280;61342;51.442;7.370;2022-11-13T00:36:42;101180.66;;;9.86;68.71
71239;BME280;61342;51.442;7.370;2022-11-13T00:37:42;101171.75;;;9.84;68.85
71239;BME280;61342;51.442;7.370;2022-11-13T00:38:43;101176.19;;;9.85;68.85
71239;BME280;61342;51.442;7.370;2022-11-13T00:39:44;101174.63;;;9.84;69.05
71239;BME280;61342;51.442;7.370;2022-11-13T00:40:44;101171.25;;;9.85;68.84
71239;BME280;61342;51.442;7.370;2022-11-13T00:41:44;101171.75;;;9.84;68.77
71239;BME280;61342;51.442;7.370;2022-11-13T00:42:45;101171.47;;;9.82;68.80
71239;BME280;61342;51.442;7.370;2022-11-13T00:43:45;101170.38;;;9.79;68.96
71239;BME280;61342;51.442;7.370;2022-11-13T00:44:46;101172.47;;;9.79;68.75
71239;BME280;61342;51.442;7.370;2022-11-13T00:45:46;101166.72;;;9.79;68.89
71239;BME280;61342;51.442;7.370;2022-11-13T00:46:46;101167.81;;;9.81;68.87
71239;BME280;61342;51.442;7.370;2022-11-13T00:47:47;101172.16;;;9.77;68.91
71239;BME280;61342;51.442;7.370;2022-11-13T00:48:47;101160.34;;;9.70;68.99
71239;BME280;61342;51.442;7.370;2022-11-13T00:49:47;101161.69;;;9.74;68.50
71239;BME280;61342;51.442;7.370;2022-11-13T00:50:48;101161.69;;;9.74;68.82
71239;BME280;61342;51.442;7.370;2022-11-13T00:51:48;101168.72;;;9.73;69.02
71239;BME280;61342;51.442;7.370;2022-11-13T00:52:49;101162.00;;;9.76;68.95
71239;BME280;61342;51.442;7.370;2022-11-13T00:53:49;101161.13;;;9.70;68.83
71239;BME280;61342;51.442;7.370;2022-11-13T00:54:49;101172.41;;;9.74;68.94
71239;BME280;61342;51.442;7.370;2022-11-13T00:55:50;101165.06;;;9.73;69.03
71239;BME280;61342;51.442;7.370;2022-11-13T00:56:50;101168.44;;;9.71;68.88
71239;BME280;61342;51.442;7.370;2022-11-13T00:57:51;101162.13;;;9.67;68.81
71239;BME280;61342;51.442;7.370;2022-11-13T00:58:51;101156.66;;;9.69;69.03
71239;BME280;61342;51.442;7.370;2022-11-13T00:59:51;101154.22;;;9.62;68.93
71239;BME280;61342;51.442;7.370;2022-11-13T01:00:52;101157.69;;;9.66;69.11
71239;BME280;61342;51.442;7.370;2022-11-13T01:01:52;101154.53;;;9.64;68.99
71239;BME280;61342;51.442;7.370;2022-11-13T01:02:52;101157.41;;;9.64;69.02
71239;BME280;61342;51.442;7.370;2022-11-13T01:03:53;101158.69;;;9.63;69.22
71239;BME280;61342;51.442;7.370;2022-11-13T01:04:53;101151.88;;;9.61;69.09
71239;BME280;61342;51.442;7.370;2022-11-13T01:05:53;101160.47;;;9.61;69.25
71239;BME280;61342;51.442;7.370;2022-11-13T01:06:54;101149.19;;;9.57;69.69
71239;BME280;61342;51.442;7.370;2022-11-13T01:07:55;101161.75;;;9.60;69.18
71239;BME280;61342;51.442;7.370;2022-11-13T01:08:56;101161.00;;;9.59;69.55
71239;BME280;61342;51.442;7.370;2022-11-13T01:09:58;101150.78;;;9.58;69.23
71239;BME280;61342;51.442;7.370;2022-11-13T01:10:59;101146.84;;;9.56;69.25
71239;BME280;61342;51.442;7.370;2022-11-13T01:11:59;101146.25;;;9.52;69.40
71239;BME280;61342;51.442;7.370;2022-11-13T01:12:59;101153.84;;;9.55;69.24
71239;BME280;61342;51.442;7.370;2022-11-13T01:14:00;101149.13;;;9.52;69.41
71239;BME280;61342;51.442;7.370;2022-11-13T01:15:00;101160.63;;;9.52;69.21
71239;BME280;61342;51.442;7.370;2022-11-13T01:16:04;101155.38;;;9.50;69.21
71239;BME280;61342;51.442;7.370;2022-11-13T01:17:05;101149.06;;;9.46;69.27
71239;BME280;61342;51.442;7.370;2022-11-13T01:18:05;101153.53;;;9.47;69.32
71239;BME280;61342;51.442;7.370;2022-11-13T01:19:06;101150.16;;;9.49;69.16
71239;BME280;61342;51.442;7.370;2022-11-13T01:20:07;101149.06;;;9.46;69.41
71239;BME280;61342;51.442;7.370;2022-11-13T01:21:13;101149.34;;;9.48;69.23
71239;BME280;61342;51.442;7.370;2022-11-13T01:22:14;101151.63;;;9.44;69.32
71239;BME280;61342;51.442;7.370;2022-11-13T01:23:14;101151.94;;;9.46;69.26
71239;BME280;61342;51.442;7.370;2022-11-13T01:24:14;101154.81;;;9.46;69.19
71239;BME280;61342;51.442;7.370;2022-11-13T01:25:16;101150.34;;;9.45;68.97
71239;BME280;61342;51.442;7.370;2022-11-13T01:26:18;101139.38;;;9.44;69.02
71239;BME280;61342;51.442;7.370;2022-11-13T01:27:19;101155.31;;;9.45;69.06
71239;BME280;61342;51.442;7.370;2022-11-13T01:28:19;101147.97;;;9.44;68.97
71239;BME280;61342;51.442;7.370;2022-11-13T01:29:20;101134.91;;;9.43;68.94
71239;BME280;61342;51.442;7.370;2022-11-13T01:30:20;101147.19;;;9.43;69.07
71239;BME280;61342;51.442;7.370;2022-11-13T01:31:24;101137.72;;;9.37;69.16
71239;BME280;61342;51.442;7.370;2022-11-13T01:32:24;101144.03;;;9.41;69.14
71239;BME280;61342;51.442;7.370;2022-11-13T01:33:24;101139.56;;;9.40;69.11
71239;BME280;61342;51.442;7.370;2022-11-13T01:34:25;101132.28;;;9.39;69.10
71239;BME280;61342;51.442;7.370;2022-11-13T01:35:25;101140.88;;;9.39;69.29
71239;BME280;61342;51.442;7.370;2022-11-13T01:36:27;101134.56;;;9.35;69.25
71239;BME280;61342;51.442;7.370;2022-11-13T01:37:27;101135.34;;;9.36;69.25
71239;BME280;61342;51.442;7.370;2022-11-13T01:38:28;101136.13;;;9.36;69.30
71239;BME280;61342;51.442;7.370;2022-11-13T01:39:29;101131.41;;;9.33;69.20
71239;BME280;61342;51.442;7.370;2022-11-13T01:40:29;101136.06;;;9.31;69.47
71239;BME280;61342;51.442;7.370;2022-11-13T01:41:32;101140.00;;;9.33;69.45
71239;BME280;61342;51.442;7.370;2022-11-13T01:42:33;101132.41;;;9.30;69.20
71239;BME280;61342;51.442;7.370;2022-11-13T01:43:37;101136.56;;;9.29;69.02
71239;BME280;61342;51.442;7.370;2022-11-13T01:44:55;101144.88;;;9.27;69.18
71239;BME280;61342;51.442;7.370;2022-11-13T01:46:56;101129.47;;;9.25;69.18
71239;BME280;61342;51.442;7.370;2022-11-13T01:47:57;101132.09;;;9.28;69.30
71239;BME280;61342;51.442;7.370;2022-11-13T01:50:09;101130.25;;;9.25;69.17
71239;BME280;61342;51.442;7.370;2022-11-13T01:51:41;101119.47;;;9.20;69.16
71239;BME280;61342;51.442;7.370;2022-11-13T01:52:41;101126.28;;;9.23;69.00
71239;BME280;61342;51.442;7.370;2022-11-13T01:53:44;101122.63;;;9.22;69.02
71239;BME280;61342;51.442;7.370;2022-11-13T01:54:49;101122.34;;;9.20;68.99
71239;BME280;61342;51.442;7.370;2022-11-13T01:55:52;101116.59;;;9.20;68.92
71239;BME280;61342;51.442;7.370;2022-11-13T01:56:53;101115.63;;;9.23;68.79
71239;BME280;61342;51.442;7.370;2022-11-13T01:57:54;101121.34;;;9.23;68.87
71239;BME280;61342;51.442;7.370;2022-11-13T01:59:04;101119.78;;;9.22;68.80
71239;BME280;61342;51.442;7.370;2022-11-13T02:00:08;101125.50;;;9.22;68.76
71239;BME280;61342;51.442;7.370;2022-11-13T02:01:10;101116.59;;;9.20;68.73
71239;BME280;61342;51.442;7.370;2022-11-13T02:02:10;101119.97;;;9.19;68.79
71239;BME280;61342;51.442;7.370;2022-11-13T02:03:10;101116.59;;;9.20;68.69
71239;BME280;61342;51.442;7.370;2022-11-13T02:04:11;101114.81;;;9.23;68.71
71239;BME280;61342;51.442;7.370;2022-11-13T02:05:12;101118.19;;;9.21;68.71
71239;BME280;61342;51.442;7.370;2022-11-13T02:06:13;101114.53;;;9.21;68.80
71239;BME280;61342;51.442;7.370;2022-11-13T02:07:15;101118.19;;;9.21;68.70
71239;BME280;61342;51.442;7.370;2022-11-13T02:08:17;101118.19;;;9.21;69.04
71239;BME280;61342;51.442;7.370;2022-11-13T02:09:20;101111.59;;;9.16;68.81
71239;BME280;61342;51.442;7.370;2022-11-13T02:10:21;101120.47;;;9.18;68.82
71239;BME280;61342;51.442;7.370;2022-11-13T02:11:21;101108.50;;;9.19;69.00
71239;BME280;61342;51.442;7.370;2022-11-13T02:12:36;101123.34;;;9.18;69.15
71239;BME280;61342;51.442;7.370;2022-11-13T02:13:39;101116.31;;;9.18;69.12
71239;BME280;61342;51.442;7.370;2022-11-13T02:14:43;101118.63;;;9.15;69.08
71239;BME280;61342;51.442;7.370;2022-11-13T02:15:44;101115.50;;;9.18;69.26
71239;BME280;61342;51.442;7.370;2022-11-13T02:16:47;101116.00;;;9.17;69.23
71239;BME280;61342;51.442;7.370;2022-11-13T02:17:54;101115.75;;;9.15;69.44
71239;BME280;61342;51.442;7.370;2022-11-13T02:18:55;101108.72;;;9.16;69.33
71239;BME280;61342;51.442;7.370;2022-11-13T02:19:59;101103.00;;;9.16;69.43
71239;BME280;61342;51.442;7.370;2022-11-13T02:22:39;101102.09;;;9.10;69.86
71239;BME280;61342;51.442;7.370;2022-11-13T02:23:49;101100.31;;;9.12;69.58
71239;BME280;61342;51.442;7.370;2022-11-13T02:24:54;101103.69;;;9.11;69.78
71239;BME280;61342;51.442;7.370;2022-11-13T02:25:57;101088.53;;;9.10;69.64
71239;BME280;61342;51.442;7.370;2022-11-13T02:27:02;101094.28;;;9.10;69.81
71239;BME280;61342;51.442;7.370;2022-11-13T02:28:04;101092.22;;;9.11;69.74
71239;BME280;61342;51.442;7.370;2022-11-13T02:29:05;101094.78;;;9.09;69.88
71239;BME280;61342;51.442;7.370;2022-11-13T02:30:18;101085.91;;;9.07;69.74
71239;BME280;61342;51.442;7.370;2022-11-13T02:31:19;101084.00;;;9.04;69.80
71239;BME280;61342;51.442;7.370;2022-11-13T02:32:19;101096.06;;;9.08;69.89
71239;BME280;61342;51.442;7.370;2022-11-13T02:33:23;101088.78;;;9.07;70.02
71239;BME280;61342;51.442;7.370;2022-11-13T02:34:24;101081.88;;;8.99;69.84
71239;BME280;61342;51.442;7.370;2022-11-13T02:36:28;101086.31;;;9.00;69.96
71239;BME280;61342;51.442;7.370;2022-11-13T02:37:29;101086.59;;;9.02;70.08
71239;BME280;61342;51.442;7.370;2022-11-13T02:38:31;101083.44;;;9.00;70.57
71239;BME280;61342;51.442;7.370;2022-11-13T02:39:31;101087.09;;;9.00;70.08
71239;BME280;61342;51.442;7.370;2022-11-13T02:40:32;101085.03;;;9.01;70.07
71239;BME280;61342;51.442;7.370;2022-11-13T02:41:33;101078.94;;;8.93;70.21
71239;BME280;61342;51.442;7.370;2022-11-13T02:42:33;101089.66;;;8.98;70.29
71239;BME280;61342;51.442;7.370;2022-11-13T02:43:33;101081.00;;;8.93;70.22
71239;BME280;61342;51.442;7.370;2022-11-13T02:44:34;101080.00;;;8.96;70.10
71239;BME280;61342;51.442;7.370;2022-11-13T02:45:34;101090.09;;;8.91;70.11
71239;BME280;61342;51.442;7.370;2022-11-13T02:46:37;101085.44;;;8.94;70.12
71239;BME280;61342;51.442;7.370;2022-11-13T02:47:38;101083.88;;;8.93;70.18
71239;BME280;61342;51.442;7.370;2022-11-13T02:48:38;101085.94;;;8.92;70.13
71239;BME280;61342;51.442;7.370;2022-11-13T02:49:39;101074.88;;;8.85;70.15
71239;BME280;61342;51.442;7.370;2022-11-13T02:50:39;101086.16;;;8.89;70.19
71239;BME280;61342;51.442;7.370;2022-11-13T02:51:39;101080.13;;;8.87;70.22
71239;BME280;61342;51.442;7.370;2022-11-13T02:52:40;101078.25;;;8.84;70.23
71239;BME280;61342;51.442;7.370;2022-11-13T02:53:41;101080.59;;;8.85;70.10
71239;BME280;61342;51.442;7.370;2022-11-13T02:54:41;101075.38;;;8.84;70.01
71239;BME280;61342;51.442;7.370;2022-11-13T02:55:41;101077.16;;;8.81;70.40
71239;BME280;61342;51.442;7.370;2022-11-13T02:56:42;101076.69;;;8.83;70.18
71239;BME280;61342;51.442;7.370;2022-11-13T02:57:42;101079.06;;;8.84;70.16
71239;BME280;61342;51.442;7.370;2022-11-13T02:58:42;101072.75;;;8.80;70.31
71239;BME280;61342;51.442;7.370;2022-11-13T02:59:44;101070.97;;;8.83;70.25
71239;BME280;61342;51.442;7.370;2022-11-13T03:00:44;101073.81;;;8.83;70.18
71239;BME280;61342;51.442;7.370;2022-11-13T03:01:45;101071.94;;;8.80;70.24
71239;BME280;61342;51.442;7.370;2022-11-13T03:02:46;101070.66;;;8.81;70.32
71239;BME280;61342;51.442;7.370;2022-11-13T03:03:46;101066.69;;;8.78;70.30
71239;BME280;61342;51.442;7.370;2022-11-13T03:04:47;101066.19;;;8.80;70.32
71239;BME280;61342;51.442;7.370;2022-11-13T03:05:48;101066.94;;;8.75;70.28
71239;BME280;61342;51.442;7.370;2022-11-13T03:06:49;101056.25;;;8.75;70.38
71239;BME280;61342;51.442;7.370;2022-11-13T03:07:49;101057.81;;;8.76;70.16
71239;BME280;61342;51.442;7.370;2022-11-13T03:08:49;101057.25;;;8.72;70.24
71239;BME280;61342;51.442;7.370;2022-11-13T03:09:50;101064.53;;;8.73;70.57
71239;BME280;61342;51.442;7.370;2022-11-13T03:10:51;101055.16;;;8.73;70.21
71239;BME280;61342;51.442;7.370;2022-11-13T03:11:52;101056.25;;;8.75;70.49
71239;BME280;61342;51.442;7.370;2022-11-13T03:12:52;101056.44;;;8.72;70.29
71239;BME280;61342;51.442;7.370;2022-11-13T03:13:52;101054.56;;;8.69;70.30
71239;BME280;61342;51.442;7.370;2022-11-13T03:14:53;101054.38;;;8.72;70.33
71239;BME280;61342;51.442;7.370;2022-11-13T03:15:53;101054.88;;;8.71;70.32
71239;BME280;61342;51.442;7.370;2022-11-13T03:16:53;101052.47;;;8.69;70.31
71239;BME280;61342;51.442;7.370;2022-11-13T03:17:54;101054.06;;;8.70;70.15
71239;BME280;61342;51.442;7.370;2022-11-13T03:18:55;101043.41;;;8.71;70.13
71239;BME280;61342;51.442;7.370;2022-11-13T03:19:55;101052.00;;;8.71;70.48
71239;BME280;61342;51.442;7.370;2022-11-13T03:20:56;101051.41;;;8.67;69.47
71239;BME280;61342;51.442;7.370;2022-11-13T03:21:56;101055.34;;;8.69;70.05
71239;BME280;61342;51.442;7.370;2022-11-13T03:22:56;101049.84;;;8.66;70.01
71239;BME280;61342;51.442;7.370;2022-11-13T03:23:57;101050.63;;;8.66;70.02
71239;BME280;61342;51.442;7.370;2022-11-13T03:24:57;101047.47;;;8.64;70.04
71239;BME280;61342;51.442;7.370;2022-11-13T03:26:07;101044.81;;;8.61;69.84
71239;BME280;61342;51.442;7.370;2022-11-13T03:27:08;101047.16;;;8.62;70.03
71239;BME280;61342;51.442;7.370;2022-11-13T03:28:08;101052.13;;;8.62;69.92
71239;BME280;61342;51.442;7.370;2022-11-13T03:29:09;101047.09;;;8.57;70.08
71239;BME280;61342;51.442;7.370;2022-11-13T03:30:10;101058.81;;;8.59;69.94
71239;BME280;61342;51.442;7.370;2022-11-13T03:31:11;101045.00;;;8.58;69.97
71239;BME280;61342;51.442;7.370;2022-11-13T03:32:11;101042.06;;;8.52;69.75
71239;BME280;61342;51.442;7.370;2022-11-13T03:33:11;101053.09;;;8.59;70.07
71239;BME280;61342;51.442;7.370;2022-11-13T03:34:12;101046.00;;;8.55;69.84
71239;BME280;61342;51.442;7.370;2022-11-13T03:35:12;101044.41;;;8.54;69.95
71239;BME280;61342;51.442;7.370;2022-11-13T03:36:13;101052.22;;;8.53;69.76
71239;BME280;61342;51.442;7.370;2022-11-13T03:37:13;101047.59;;;8.56;69.75
71239;BME280;61342;51.442;7.370;2022-11-13T03:38:14;101050.16;;;8.54;69.82
71239;BME280;61342;51.442;7.370;2022-11-13T03:39:14;101052.50;;;8.55;69.81
71239;BME280;61342;51.442;7.370;2022-11-13T03:40:15;101050.38;;;8.50;69.81
71239;BME280;61342;51.442;7.370;2022-11-13T03:41:15;101041.47;;;8.48;69.88
71239;BME280;61342;51.442;7.370;2022-11-13T03:42:15;101051.94;;;8.51;70.00
71239;BME280;61342;51.442;7.370;2022-11-13T03:43:16;101047.19;;;8.48;70.10
71239;BME280;61342;51.442;7.370;2022-11-13T03:44:16;101050.06;;;8.48;70.01
71239;BME280;61342;51.442;7.370;2022-11-13T03:45:16;101058.66;;;8.48;70.07
71239;BME280;61342;51.442;7.370;2022-11-13T03:46:17;101046.63;;;8.44;70.10
71239;BME280;61342;51.442;7.370;2022-11-13T03:47:17;101048.19;;;8.45;69.99
71239;BME280;61342;51.442;7.370;2022-11-13T03:48:17;101049.97;;;8.43;70.29
71239;BME280;61342;51.442;7.370;2022-11-13T03:49:18;101054.94;;;8.42;70.21
71239;BME280;61342;51.442;7.370;2022-11-13T03:50:18;101045.44;;;8.36;70.21
71239;BME280;61342;51.442;7.370;2022-11-13T03:51:18;101048.13;;;8.40;70.31
71239;BME280;61342;51.442;7.370;2022-11-13T03:52:19;101047.81;;;8.38;70.48
71239;BME280;61342;51.442;7.370;2022-11-13T03:53:19;101047.53;;;8.36;70.49
71239;BME280;61342;51.442;7.370;2022-11-13T03:54:20;101047.03;;;8.37;70.61
71239;BME280;61342;51.442;7.370;2022-11-13T03:55:20;101052.75;;;8.37;70.72
71239;BME280;61342;51.442;7.370;2022-11-13T03:56:21;101043.84;;;8.35;70.78
71239;BME280;61342;51.442;7.370;2022-11-13T03:57:21;101045.16;;;8.34;70.78
71239;BME280;61342;51.442;7.370;2022-11-13T03:58:21;101042.28;;;8.34;70.74
71239;BME280;61342;51.442;7.370;2022-11-13T03:59:22;101040.41;;;8.31;70.50
71239;BME280;61342;51.442;7.370;2022-11-13T04:00:22;101041.00;;;8.35;70.95
71239;BME280;61342;51.442;7.370;2022-11-13T04:01:22;101050.38;;;8.36;71.27
71239;BME280;61342;51.442;7.370;2022-11-13T04:02:23;101041.50;;;8.34;71.03
71239;BME280;61342;51.442;7.370;2022-11-13T04:03:23;101050.38;;;8.36;71.24
71239;BME280;61342;51.442;7.370;2022-11-13T04:04:24;101040.41;;;8.31;71.12
71239;BME280;61342;51.442;7.370;2022-11-13T04:05:24;101036.25;;;8.32;71.31
71239;BME280;61342;51.442;7.370;2022-11-13T04:06:25;101041.00;;;8.35;71.46
71239;BME280;61342;51.442;7.370;2022-11-13T04:07:25;101037.53;;;8.31;71.36
71239;BME280;61342;51.442;7.370;2022-11-13T04:08:25;101038.94;;;8.36;71.61
71239;BME280;61342;51.442;7.370;2022-11-13T04:09:26;101037.34;;;8.35;71.38
71239;BME280;61342;51.442;7.370;2022-11-13T04:10:26;101042.56;;;8.36;71.81
71239;BME280;61342;51.442;7.370;2022-11-13T04:11:27;101037.53;;;8.31;71.54
71239;BME280;61342;51.442;7.370;2022-11-13T04:12:27;101034.75;;;8.37;71.58
71239;BME280;61342;51.442;7.370;2022-11-13T04:13:28;101022.72;;;8.33;71.65
71239;BME280;61342;51.442;7.370;2022-11-13T04:14:28;101039.13;;;8.32;71.66
71239;BME280;61342;51.442;7.370;2022-11-13T04:15:29;101026.38;;;8.33;71.55
71239;BME280;61342;51.442;7.370;2022-11-13T04:16:29;101029.03;;;8.37;71.80
71239;BME280;61342;51.442;7.370;2022-11-13T04:17:29;101033.97;;;8.36;71.91
71239;BME280;61342;51.442;7.370;2022-11-13T04:18:30;101022.25;;;8.34;71.72
71239;BME280;61342;51.442;7.370;2022-11-13T04:19:31;101035.56;;;8.37;71.75
71239;BME280;61342;51.442;7.370;2022-11-13T04:20:31;101029.84;;;8.37;71.79
71239;BME280;61342;51.442;7.370;2022-11-13T04:21:31;101019.84;;;8.33;71.83
71239;BME280;61342;51.442;7.370;2022-11-13T04:22:32;101021.75;;;8.36;71.82
71239;BME280;61342;51.442;7.370;2022-11-13T04:23:32;101029.84;;;8.37;71.88
71239;BME280;61342;51.442;7.370;2022-11-13T04:24:33;101022.25;;;8.34;71.86
71239;BME280;61342;51.442;7.370;2022-11-13T04:25:33;101031.44;;;8.38;72.03
71239;BME280;61342;51.442;7.370;2022-11-13T04:26:33;101020.94;;;8.35;72.02
71239;BME280;61342;51.442;7.370;2022-11-13T04:27:34;101024.09;;;8.37;71.88
71239;BME280;61342;51.442;7.370;2022-11-13T04:28:35;101030.63;;;8.38;71.95
71239;BME280;61342;51.442;7.370;2022-11-13T04:29:35;101018.88;;;8.36;72.14
71239;BME280;61342;51.442;7.370;2022-11-13T04:30:36;101020.94;;;8.35;72.07
71239;BME280;61342;51.442;7.370;2022-11-13T04:31:36;101019.38;;;8.34;72.13
71239;BME280;61342;51.442;7.370;2022-11-13T04:32:37;101024.59;;;8.36;72.01
71239;BME280;61342;51.442;7.370;2022-11-13T04:33:37;101027.47;;;8.36;72.07
71239;BME280;61342;51.442;7.370;2022-11-13T04:34:37;101024.81;;;8.32;72.24
71239;BME280;61342;51.442;7.370;2022-11-13T04:35:38;101016.72;;;8.31;72.04
71239;BME280;61342;51.442;7.370;2022-11-13T04:36:40;101018.00;;;8.30;72.26
71239;BME280;61342;51.442;7.370;2022-11-13T04:37:41;101018.00;;;8.30;72.33
71239;BME280;61342;51.442;7.370;2022-11-13T04:38:41;101009.63;;;8.26;72.47
71239;BME280;61342;51.442;7.370;2022-11-13T04:39:41;101015.13;;;8.30;72.31
71239;BME280;61342;51.442;7.370;2022-11-13T04:40:42;101016.72;;;8.31;72.16
71239;BME280;61342;51.442;7.370;2022-11-13T04:41:42;101027.09;;;8.28;72.21
71239;BME280;61342;51.442;7.370;2022-11-13T04:43:02;101019.75;;;8.27;72.22
71239;BME280;61342;51.442;7.370;2022-11-13T04:44:02;101025.22;;;8.25;72.44
71239;BME280;61342;51.442;7.370;2022-11-13T04:45:03;101016.63;;;8.25;72.21
71239;BME280;61342;51.442;7.370;2022-11-13T04:46:04;101007.72;;;8.23;72.22
71239;BME280;61342;51.442;7.370;2022-11-13T04:47:04;101019.19;;;8.23;72.31
71239;BME280;61342;51.442;7.370;2022-11-13T04:48:05;101010.31;;;8.21;72.41
71239;BME280;61342;51.442;7.370;2022-11-13T04:49:05;101012.88;;;8.19;72.38
71239;BME280;61342;51.442;7.370;2022-11-13T04:50:06;101008.13;;;8.16;72.25
71239;BME280;61342;51.442;7.370;2022-11-13T04:51:06;101006.56;;;8.15;72.42
71239;BME280;61342;51.442;7.370;2022-11-13T04:52:06;101007.06;;;8.14;72.44
71239;BME280;61342;51.442;7.370;2022-11-13T04:53:07;101009.41;;;8.15;72.54
71239;BME280;61342;51.442;7.370;2022-11-13T04:54:07;101001.78;;;8.12;72.42
71239;BME280;61342;51.442;7.370;2022-11-13T04:55:08;101012.59;;;8.17;72.38
71239;BME280;61342;51.442;7.370;2022-11-13T04:56:09;101010.69;;;8.14;72.97
71239;BME280;61342;51.442;7.370;2022-11-13T04:57:09;101002.59;;;8.13;72.48
71239;BME280;61342;51.442;7.370;2022-11-13T04:58:09;101010.06;;;8.10;72.24
71239;BME280;61342;51.442;7.370;2022-11-13T04:59:10;101007.22;;;8.10;72.55
71239;BME280;61342;51.442;7.370;2022-11-13T05:00:11;101001.19;;;8.08;72.68
71239;BME280;61342;51.442;7.370;2022-11-13T05:01:11;101004.06;;;8.08;72.37
71239;BME280;61342;51.442;7.370;2022-11-13T05:02:12;101001.13;;;8.03;72.52
71239;BME280;61342;51.442;7.370;2022-11-13T05:03:12;100990.94;;;8.02;72.65
71239;BME280;61342;51.442;7.370;2022-11-13T05:04:14;101002.19;;;8.05;72.71
71239;BME280;61342;51.442;7.370;2022-11-13T05:05:15;100997.75;;;8.04;72.56
71239;BME280;61342;51.442;7.370;2022-11-13T05:06:15;100996.34;;;8.00;72.51
71239;BME280;61342;51.442;7.370;2022-11-13T05:07:16;100997.16;;;8.01;72.67
71239;BME280;61342;51.442;7.370;2022-11-13T05:08:16;100997.94;;;8.01;72.51
71239;BME280;61342;51.442;7.370;2022-11-13T05:09:16;100997.34;;;7.97;72.65
71239;BME280;61342;51.442;7.370;2022-11-13T05:10:17;100994.50;;;7.97;72.42
71239;BME280;61342;51.442;7.370;2022-11-13T05:11:17;100998.44;;;8.00;72.67
71239;BME280;61342;51.442;7.370;2022-11-13T05:12:17;100993.72;;;7.97;72.65
71239;BME280;61342;51.442;7.370;2022-11-13T05:13:18;100994.00;;;7.99;72.60
71239;BME280;61342;51.442;7.370;2022-11-13T05:14:18;101002.28;;;7.97;72.57
71239;BME280;61342;51.442;7.370;2022-11-13T05:15:19;100997.34;;;7.97;72.90
71239;BME280;61342;51.442;7.370;2022-11-13T05:16:19;100986.59;;;7.92;72.78
71239;BME280;61342;51.442;7.370;2022-11-13T05:17:20;100992.91;;;7.96;72.53
71239;BME280;61342;51.442;7.370;2022-11-13T05:18:24;101002.47;;;7.93;72.65
71239;BME280;61342;51.442;7.370;2022-11-13T05:19:24;100995.75;;;7.96;72.64
71239;BME280;61342;51.442;7.370;2022-11-13T05:20:24;100993.41;;;7.95;72.85
71239;BME280;61342;51.442;7.370;2022-11-13T05:21:25;100986.91;;;7.94;72.67
71239;BME280;61342;51.442;7.370;2022-11-13T05:22:25;100983.53;;;7.96;72.70
71239;BME280;61342;51.442;7.370;2022-11-13T05:23:25;100985.63;;;7.95;72.69
71239;BME280;61342;51.442;7.370;2022-11-13T05:24:26;100977.72;;;7.90;72.92
71239;BME280;61342;51.442;7.370;2022-11-13T05:25:26;100984.03;;;7.94;72.55
71239;BME280;61342;51.442;7.370;2022-11-13T05:26:27;100984.81;;;7.95;72.57
71239;BME280;61342;51.442;7.370;2022-11-13T05:27:28;100985.63;;;7.95;72.70
71239;BME280;61342;51.442;7.370;2022-11-13T05:28:28;100978.00;;;7.92;72.42